Osgood, Iowa
Current Conditions -  °F | °C
As of 9:15 PM on Thursday 27 Nov 2014 (Local Time) from KAXA Reporting Station
Overcast Overcast  
Wind Chill: -11°   Ceiling: 5500
Heat Index:   Visibility: 10mi
Dew Point:   Wind: 15mph
Humidity: 72%   Direction: 170°S
Pressure: 30.28"   Gusts: NA
Location:  43.0838°N, 94.6785°W
Report Text: KAXA 280315Z AUTO 17013KT 10SM FEW049 OVC055 M14/M18 A3028 RMK AO2
Loading
Personal Weather Stations






























Interactive Weather Map New forecast layout! Learn more

10-Day Weather Forecast

Advertisements
Track Severe Weather on mobile